sensor_id;sensor_type;location;lat;lon;timestamp;temperature;humidity
666;DHT22;315;48.738;9.126;2023-04-12T00:01:45;9.70;99.90
666;DHT22;315;48.738;9.126;2023-04-12T00:04:11;9.70;99.90
666;DHT22;315;48.738;9.126;2023-04-12T00:06:38;9.60;99.90
666;DHT22;315;48.738;9.126;2023-04-12T00:09:04;9.50;99.90
666;DHT22;315;48.738;9.126;2023-04-12T00:11:30;9.50;99.90
666;DHT22;315;48.738;9.126;2023-04-12T00:13:56;9.50;99.90
666;DHT22;315;48.738;9.126;2023-04-12T00:16:22;9.50;99.90
666;DHT22;315;48.738;9.126;2023-04-12T00:18:48;9.40;99.90
666;DHT22;315;48.738;9.126;2023-04-12T00:21:16;9.30;99.90
666;DHT22;315;48.738;9.126;2023-04-12T00:23:46;9.30;99.90
666;DHT22;315;48.738;9.126;2023-04-12T00:26:13;9.20;99.90
666;DHT22;315;48.738;9.126;2023-04-12T00:28:39;9.20;99.90
666;DHT22;315;48.738;9.126;2023-04-12T00:31:05;9.10;99.90
666;DHT22;315;48.738;9.126;2023-04-12T00:33:33;9.00;99.90
666;DHT22;315;48.738;9.126;2023-04-12T00:35:58;8.80;99.90
666;DHT22;315;48.738;9.126;2023-04-12T00:38:24;8.70;99.90
666;DHT22;315;48.738;9.126;2023-04-12T00:40:49;8.50;99.90
666;DHT22;315;48.738;9.126;2023-04-12T00:43:15;8.40;99.90
666;DHT22;315;48.738;9.126;2023-04-12T00:45:43;8.30;99.90
666;DHT22;315;48.738;9.126;2023-04-12T00:48:09;8.40;99.90
666;DHT22;315;48.738;9.126;2023-04-12T00:50:35;8.30;99.90
666;DHT22;315;48.738;9.126;2023-04-12T00:53:02;8.20;99.90
666;DHT22;315;48.738;9.126;2023-04-12T00:55:28;8.20;99.90
666;DHT22;315;48.738;9.126;2023-04-12T00:57:54;8.20;99.90
666;DHT22;315;48.738;9.126;2023-04-12T01:00:19;8.10;99.90
666;DHT22;315;48.738;9.126;2023-04-12T01:02:45;8.10;99.90
666;DHT22;315;48.738;9.126;2023-04-12T01:05:13;8.00;99.90
666;DHT22;315;48.738;9.126;2023-04-12T01:08:07;8.00;99.90
666;DHT22;315;48.738;9.126;2023-04-12T01:15:54;8.00;99.90
666;DHT22;315;48.738;9.126;2023-04-12T01:18:24;8.10;99.90
666;DHT22;315;48.738;9.126;2023-04-12T01:21:07;8.10;99.90
666;DHT22;315;48.738;9.126;2023-04-12T01:26:26;7.90;99.90
666;DHT22;315;48.738;9.126;2023-04-12T01:28:58;7.90;99.90
666;DHT22;315;48.738;9.126;2023-04-12T01:31:26;7.90;99.90
666;DHT22;315;48.738;9.126;2023-04-12T01:33:53;7.90;99.90
666;DHT22;315;48.738;9.126;2023-04-12T01:36:21;7.80;99.90
666;DHT22;315;48.738;9.126;2023-04-12T01:38:48;7.80;99.90
666;DHT22;315;48.738;9.126;2023-04-12T01:41:14;7.80;99.90
666;DHT22;315;48.738;9.126;2023-04-12T01:43:41;7.80;99.90
666;DHT22;315;48.738;9.126;2023-04-12T01:46:07;7.70;99.90
666;DHT22;315;48.738;9.126;2023-04-12T01:48:33;7.70;99.90
666;DHT22;315;48.738;9.126;2023-04-12T01:51:04;7.70;99.90
666;DHT22;315;48.738;9.126;2023-04-12T01:56:15;7.70;99.90
666;DHT22;315;48.738;9.126;2023-04-12T01:58:42;7.70;99.90
666;DHT22;315;48.738;9.126;2023-04-12T02:01:11;7.60;99.90
666;DHT22;315;48.738;9.126;2023-04-12T02:03:39;7.60;99.90
666;DHT22;315;48.738;9.126;2023-04-12T02:06:06;7.60;99.90
666;DHT22;315;48.738;9.126;2023-04-12T02:08:33;7.60;99.90
666;DHT22;315;48.738;9.126;2023-04-12T02:10:59;7.50;99.90
666;DHT22;315;48.738;9.126;2023-04-12T02:13:24;7.50;99.90
666;DHT22;315;48.738;9.126;2023-04-12T02:15:51;7.50;99.90
666;DHT22;315;48.738;9.126;2023-04-12T02:18:19;7.40;99.90
666;DHT22;315;48.738;9.126;2023-04-12T02:20:44;7.40;99.90
666;DHT22;315;48.738;9.126;2023-04-12T02:23:11;7.40;99.90
666;DHT22;315;48.738;9.126;2023-04-12T02:25:37;7.50;99.90
666;DHT22;315;48.738;9.126;2023-04-12T02:28:04;7.50;99.90
666;DHT22;315;48.738;9.126;2023-04-12T02:30:31;7.50;99.90
666;DHT22;315;48.738;9.126;2023-04-12T02:32:56;7.50;99.90
666;DHT22;315;48.738;9.126;2023-04-12T02:35:23;7.50;99.90
666;DHT22;315;48.738;9.126;2023-04-12T02:37:49;7.40;99.90
666;DHT22;315;48.738;9.126;2023-04-12T02:40:15;7.40;99.90
666;DHT22;315;48.738;9.126;2023-04-12T02:42:41;7.50;99.90
666;DHT22;315;48.738;9.126;2023-04-12T02:45:08;7.50;99.90
666;DHT22;315;48.738;9.126;2023-04-12T02:47:33;7.40;99.90
666;DHT22;315;48.738;9.126;2023-04-12T02:49:59;7.50;99.90
666;DHT22;315;48.738;9.126;2023-04-12T02:52:24;7.50;99.90
666;DHT22;315;48.738;9.126;2023-04-12T02:54:50;7.50;99.90
666;DHT22;315;48.738;9.126;2023-04-12T02:57:16;7.50;99.90
666;DHT22;315;48.738;9.126;2023-04-12T02:59:42;7.50;99.90
666;DHT22;315;48.738;9.126;2023-04-12T03:02:08;7.40;99.90
666;DHT22;315;48.738;9.126;2023-04-12T03:04:33;7.40;99.90
666;DHT22;315;48.738;9.126;2023-04-12T03:07:02;7.40;99.90
666;DHT22;315;48.738;9.126;2023-04-12T03:09:27;7.40;99.90
666;DHT22;315;48.738;9.126;2023-04-12T03:11:53;7.50;99.90
666;DHT22;315;48.738;9.126;2023-04-12T03:14:18;7.50;99.90
666;DHT22;315;48.738;9.126;2023-04-12T03:16:44;7.50;99.90
666;DHT22;315;48.738;9.126;2023-04-12T03:19:09;7.40;99.90
666;DHT22;315;48.738;9.126;2023-04-12T03:21:35;7.40;99.90
666;DHT22;315;48.738;9.126;2023-04-12T03:24:01;7.40;99.90
666;DHT22;315;48.738;9.126;2023-04-12T03:26:28;7.40;99.90
666;DHT22;315;48.738;9.126;2023-04-12T03:28:57;7.40;99.90
666;DHT22;315;48.738;9.126;2023-04-12T03:31:22;7.40;99.90
666;DHT22;315;48.738;9.126;2023-04-12T03:33:48;7.40;99.90
666;DHT22;315;48.738;9.126;2023-04-12T03:36:14;7.40;99.90
666;DHT22;315;48.738;9.126;2023-04-12T03:38:39;7.40;99.90
666;DHT22;315;48.738;9.126;2023-04-12T03:41:05;7.50;99.90
666;DHT22;315;48.738;9.126;2023-04-12T03:43:31;7.50;99.90
666;DHT22;315;48.738;9.126;2023-04-12T03:46:01;7.40;99.90
666;DHT22;315;48.738;9.126;2023-04-12T03:48:27;7.40;99.90
666;DHT22;315;48.738;9.126;2023-04-12T03:50:53;7.50;99.90
666;DHT22;315;48.738;9.126;2023-04-12T03:53:19;7.50;99.90
666;DHT22;315;48.738;9.126;2023-04-12T03:55:45;7.50;99.90
666;DHT22;315;48.738;9.126;2023-04-12T03:58:11;7.50;99.90
666;DHT22;315;48.738;9.126;2023-04-12T04:00:38;7.40;99.90
666;DHT22;315;48.738;9.126;2023-04-12T04:03:04;7.40;99.90
666;DHT22;315;48.738;9.126;2023-04-12T04:05:30;7.40;99.90
666;DHT22;315;48.738;9.126;2023-04-12T04:07:56;7.40;99.90
666;DHT22;315;48.738;9.126;2023-04-12T04:10:26;7.40;99.90
666;DHT22;315;48.738;9.126;2023-04-12T04:12:52;7.40;99.90
666;DHT22;315;48.738;9.126;2023-04-12T04:15:17;7.40;99.90
666;DHT22;315;48.738;9.126;2023-04-12T04:17:43;7.40;99.90
666;DHT22;315;48.738;9.126;2023-04-12T04:20:10;7.40;99.90
666;DHT22;315;48.738;9.126;2023-04-12T04:22:37;7.40;99.90
666;DHT22;315;48.738;9.126;2023-04-12T04:25:03;7.30;99.90
666;DHT22;315;48.738;9.126;2023-04-12T04:27:30;7.30;99.90
666;DHT22;315;48.738;9.126;2023-04-12T04:29:59;7.30;99.90
666;DHT22;315;48.738;9.126;2023-04-12T04:32:27;7.30;99.90
666;DHT22;315;48.738;9.126;2023-04-12T04:34:55;7.30;99.90
666;DHT22;315;48.738;9.126;2023-04-12T04:37:21;7.30;99.90
666;DHT22;315;48.738;9.126;2023-04-12T04:39:49;7.40;99.90
666;DHT22;315;48.738;9.126;2023-04-12T04:42:15;7.40;99.90
666;DHT22;315;48.738;9.126;2023-04-12T04:44:40;7.40;99.90
666;DHT22;315;48.738;9.126;2023-04-12T04:47:06;7.40;99.90
666;DHT22;315;48.738;9.126;2023-04-12T04:49:32;7.40;99.90
666;DHT22;315;48.738;9.126;2023-04-12T04:51:58;7.40;99.90
666;DHT22;315;48.738;9.126;2023-04-12T04:54:23;7.40;99.90
666;DHT22;315;48.738;9.126;2023-04-12T04:56:49;7.40;99.90
666;DHT22;315;48.738;9.126;2023-04-12T04:59:16;7.40;99.90
666;DHT22;315;48.738;9.126;2023-04-12T05:01:42;7.40;99.90
666;DHT22;315;48.738;9.126;2023-04-12T05:04:07;7.40;99.90
666;DHT22;315;48.738;9.126;2023-04-12T05:06:33;7.40;99.90
666;DHT22;315;48.738;9.126;2023-04-12T05:08:58;7.30;99.90
666;DHT22;315;48.738;9.126;2023-04-12T05:11:26;7.40;99.90
666;DHT22;315;48.738;9.126;2023-04-12T05:13:51;7.40;99.90
666;DHT22;315;48.738;9.126;2023-04-12T05:16:17;7.40;99.90
666;DHT22;315;48.738;9.126;2023-04-12T05:18:43;7.40;99.90
666;DHT22;315;48.738;9.126;2023-04-12T05:21:09;7.40;99.90
666;DHT22;315;48.738;9.126;2023-04-12T05:23:35;7.40;99.90
666;DHT22;315;48.738;9.126;2023-04-12T05:26:02;7.40;99.90
666;DHT22;315;48.738;9.126;2023-04-12T05:28:27;7.40;99.90
666;DHT22;315;48.738;9.126;2023-04-12T05:30:53;7.40;99.90
666;DHT22;315;48.738;9.126;2023-04-12T05:33:18;7.50;99.90
666;DHT22;315;48.738;9.126;2023-04-12T05:35:44;7.50;99.90
666;DHT22;315;48.738;9.126;2023-04-12T05:38:09;7.50;99.90
666;DHT22;315;48.738;9.126;2023-04-12T05:40:35;7.50;99.90
666;DHT22;315;48.738;9.126;2023-04-12T05:43:01;7.40;99.90
666;DHT22;315;48.738;9.126;2023-04-12T05:45:27;7.50;99.90
666;DHT22;315;48.738;9.126;2023-04-12T05:47:54;7.50;99.90
666;DHT22;315;48.738;9.126;2023-04-12T05:50:20;7.50;99.90
666;DHT22;315;48.738;9.126;2023-04-12T05:52:45;7.40;99.90
666;DHT22;315;48.738;9.126;2023-04-12T05:55:13;7.50;99.90
666;DHT22;315;48.738;9.126;2023-04-12T05:57:39;7.50;99.90
666;DHT22;315;48.738;9.126;2023-04-12T06:00:05;7.50;99.90
666;DHT22;315;48.738;9.126;2023-04-12T06:02:37;7.50;99.90
666;DHT22;315;48.738;9.126;2023-04-12T06:05:03;7.50;99.90
666;DHT22;315;48.738;9.126;2023-04-12T06:07:29;7.50;99.90
666;DHT22;315;48.738;9.126;2023-04-12T06:09:55;7.50;99.90
666;DHT22;315;48.738;9.126;2023-04-12T06:12:20;7.60;99.90
666;DHT22;315;48.738;9.126;2023-04-12T06:14:46;7.50;99.90
666;DHT22;315;48.738;9.126;2023-04-12T06:17:11;7.60;99.90
666;DHT22;315;48.738;9.126;2023-04-12T06:19:37;7.60;99.90
666;DHT22;315;48.738;9.126;2023-04-12T06:22:02;7.60;99.90
666;DHT22;315;48.738;9.126;2023-04-12T06:24:28;7.60;99.90
666;DHT22;315;48.738;9.126;2023-04-12T06:26:53;7.60;99.90
666;DHT22;315;48.738;9.126;2023-04-12T06:29:19;7.70;99.90
666;DHT22;315;48.738;9.126;2023-04-12T06:31:44;7.70;99.90
666;DHT22;315;48.738;9.126;2023-04-12T06:34:10;7.70;99.90
666;DHT22;315;48.738;9.126;2023-04-12T06:36:36;7.70;99.90
666;DHT22;315;48.738;9.126;2023-04-12T06:39:02;7.70;99.90
666;DHT22;315;48.738;9.126;2023-04-12T06:41:28;7.70;99.90
666;DHT22;315;48.738;9.126;2023-04-12T06:43:54;7.70;99.90
666;DHT22;315;48.738;9.126;2023-04-12T06:46:27;7.80;99.90
666;DHT22;315;48.738;9.126;2023-04-12T06:48:53;7.80;99.90
666;DHT22;315;48.738;9.126;2023-04-12T06:51:18;7.80;99.90
666;DHT22;315;48.738;9.126;2023-04-12T06:53:44;7.90;99.90
666;DHT22;315;48.738;9.126;2023-04-12T06:56:09;7.90;99.90
666;DHT22;315;48.738;9.126;2023-04-12T06:58:35;8.00;99.90
666;DHT22;315;48.738;9.126;2023-04-12T07:01:07;8.10;99.90
666;DHT22;315;48.738;9.126;2023-04-12T07:03:34;8.10;99.90
666;DHT22;315;48.738;9.126;2023-04-12T07:06:00;8.20;99.90
666;DHT22;315;48.738;9.126;2023-04-12T07:08:27;8.20;99.90
666;DHT22;315;48.738;9.126;2023-04-12T07:10:54;8.10;99.90
666;DHT22;315;48.738;9.126;2023-04-12T07:13:19;8.20;99.90
666;DHT22;315;48.738;9.126;2023-04-12T07:15:45;8.20;99.90
666;DHT22;315;48.738;9.126;2023-04-12T07:18:11;8.20;99.90
666;DHT22;315;48.738;9.126;2023-04-12T07:20:37;8.20;99.90
666;DHT22;315;48.738;9.126;2023-04-12T07:23:02;8.20;99.90
666;DHT22;315;48.738;9.126;2023-04-12T07:25:28;8.20;99.90
666;DHT22;315;48.738;9.126;2023-04-12T07:27:53;8.30;99.90
666;DHT22;315;48.738;9.126;2023-04-12T07:30:19;8.40;99.90
666;DHT22;315;48.738;9.126;2023-04-12T07:32:44;8.40;99.90
666;DHT22;315;48.738;9.126;2023-04-12T07:35:10;8.40;99.90
666;DHT22;315;48.738;9.126;2023-04-12T07:37:36;8.60;99.90
666;DHT22;315;48.738;9.126;2023-04-12T07:40:02;8.60;99.90
666;DHT22;315;48.738;9.126;2023-04-12T07:42:27;8.70;99.90
666;DHT22;315;48.738;9.126;2023-04-12T07:44:53;8.70;99.90
666;DHT22;315;48.738;9.126;2023-04-12T07:47:18;8.70;99.90
666;DHT22;315;48.738;9.126;2023-04-12T07:49:44;8.60;99.90
666;DHT22;315;48.738;9.126;2023-04-12T07:52:09;8.60;99.90
666;DHT22;315;48.738;9.126;2023-04-12T07:54:35;8.70;99.90
666;DHT22;315;48.738;9.126;2023-04-12T07:57:02;8.70;99.90
666;DHT22;315;48.738;9.126;2023-04-12T07:59:28;8.80;99.90
666;DHT22;315;48.738;9.126;2023-04-12T08:01:54;8.90;99.90
666;DHT22;315;48.738;9.126;2023-04-12T08:04:20;8.90;99.90
666;DHT22;315;48.738;9.126;2023-04-12T08:06:45;9.00;99.90
666;DHT22;315;48.738;9.126;2023-04-12T08:09:11;9.10;99.90
666;DHT22;315;48.738;9.126;2023-04-12T08:11:36;9.10;99.90
666;DHT22;315;48.738;9.126;2023-04-12T08:14:02;9.20;99.90
666;DHT22;315;48.738;9.126;2023-04-12T08:16:28;9.20;99.90
666;DHT22;315;48.738;9.126;2023-04-12T08:18:53;9.30;99.90
666;DHT22;315;48.738;9.126;2023-04-12T08:21:19;9.30;99.90
666;DHT22;315;48.738;9.126;2023-04-12T08:23:44;9.30;99.90
666;DHT22;315;48.738;9.126;2023-04-12T08:26:10;9.30;99.90
666;DHT22;315;48.738;9.126;2023-04-12T08:28:35;9.30;99.90
666;DHT22;315;48.738;9.126;2023-04-12T08:31:01;9.30;99.90
666;DHT22;315;48.738;9.126;2023-04-12T08:33:27;9.40;99.90
666;DHT22;315;48.738;9.126;2023-04-12T08:35:52;9.40;99.90
666;DHT22;315;48.738;9.126;2023-04-12T08:38:18;9.40;99.90
666;DHT22;315;48.738;9.126;2023-04-12T08:40:44;9.50;99.90
666;DHT22;315;48.738;9.126;2023-04-12T08:43:11;9.50;99.90
666;DHT22;315;48.738;9.126;2023-04-12T08:45:37;9.60;99.90
666;DHT22;315;48.738;9.126;2023-04-12T08:48:05;9.60;99.90
666;DHT22;315;48.738;9.126;2023-04-12T08:50:31;9.70;99.90
666;DHT22;315;48.738;9.126;2023-04-12T08:52:58;9.80;99.90
666;DHT22;315;48.738;9.126;2023-04-12T08:55:24;9.80;99.90
666;DHT22;315;48.738;9.126;2023-04-12T08:57:52;9.80;99.90
666;DHT22;315;48.738;9.126;2023-04-12T09:00:19;9.80;99.90
666;DHT22;315;48.738;9.126;2023-04-12T09:02:45;9.90;99.90
666;DHT22;315;48.738;9.126;2023-04-12T09:05:13;9.80;99.90
666;DHT22;315;48.738;9.126;2023-04-12T09:07:39;9.80;99.90
666;DHT22;315;48.738;9.126;2023-04-12T09:10:05;9.90;99.90
666;DHT22;315;48.738;9.126;2023-04-12T09:12:31;9.90;99.90
666;DHT22;315;48.738;9.126;2023-04-12T09:15:13;9.90;99.90
666;DHT22;315;48.738;9.126;2023-04-12T09:17:40;9.90;99.90
666;DHT22;315;48.738;9.126;2023-04-12T09:22:40;10.10;99.90
666;DHT22;315;48.738;9.126;2023-04-12T09:25:09;10.00;99.90
666;DHT22;315;48.738;9.126;2023-04-12T09:27:48;10.20;99.90
666;DHT22;315;48.738;9.126;2023-04-12T09:30:15;10.30;99.90
666;DHT22;315;48.738;9.126;2023-04-12T09:32:41;10.50;99.90
666;DHT22;315;48.738;9.126;2023-04-12T09:35:07;10.60;99.90
666;DHT22;315;48.738;9.126;2023-04-12T09:37:32;10.70;99.90
666;DHT22;315;48.738;9.126;2023-04-12T09:39:59;10.70;99.90
666;DHT22;315;48.738;9.126;2023-04-12T09:42:25;10.70;99.90
666;DHT22;315;48.738;9.126;2023-04-12T09:44:55;10.80;99.90
666;DHT22;315;48.738;9.126;2023-04-12T09:47:22;10.80;99.90
666;DHT22;315;48.738;9.126;2023-04-12T09:49:49;10.80;99.90
666;DHT22;315;48.738;9.126;2023-04-12T09:52:14;10.90;99.90
666;DHT22;315;48.738;9.126;2023-04-12T09:57:08;11.00;99.90
666;DHT22;315;48.738;9.126;2023-04-12T09:59:38;11.00;99.90
666;DHT22;315;48.738;9.126;2023-04-12T10:02:06;11.00;99.90
666;DHT22;315;48.738;9.126;2023-04-12T10:04:34;11.00;99.90
666;DHT22;315;48.738;9.126;2023-04-12T10:07:01;11.10;99.90
666;DHT22;315;48.738;9.126;2023-04-12T10:09:27;11.30;99.90
666;DHT22;315;48.738;9.126;2023-04-12T10:11:53;11.40;99.90
666;DHT22;315;48.738;9.126;2023-04-12T10:14:20;11.50;99.90
666;DHT22;315;48.738;9.126;2023-04-12T10:16:46;11.60;99.90
666;DHT22;315;48.738;9.126;2023-04-12T10:19:13;11.60;99.90
666;DHT22;315;48.738;9.126;2023-04-12T10:21:39;11.70;99.90
666;DHT22;315;48.738;9.126;2023-04-12T10:24:05;11.80;99.90
666;DHT22;315;48.738;9.126;2023-04-12T10:26:33;11.90;99.90
666;DHT22;315;48.738;9.126;2023-04-12T10:29:24;11.90;99.90
666;DHT22;315;48.738;9.126;2023-04-12T10:31:51;12.10;99.90
666;DHT22;315;48.738;9.126;2023-04-12T10:34:16;12.40;99.90
666;DHT22;315;48.738;9.126;2023-04-12T10:36:55;12.50;99.90
666;DHT22;315;48.738;9.126;2023-04-12T10:42:26;12.80;99.90
666;DHT22;315;48.738;9.126;2023-04-12T10:45:34;13.00;99.90
666;DHT22;315;48.738;9.126;2023-04-12T10:50:30;13.00;99.90
666;DHT22;315;48.738;9.126;2023-04-12T10:53:19;12.90;99.90
666;DHT22;315;48.738;9.126;2023-04-12T10:55:46;13.10;99.90
666;DHT22;315;48.738;9.126;2023-04-12T11:01:12;13.60;99.90
666;DHT22;315;48.738;9.126;2023-04-12T11:04:04;14.10;99.90
666;DHT22;315;48.738;9.126;2023-04-12T11:06:49;14.30;99.90
666;DHT22;315;48.738;9.126;2023-04-12T11:14:32;14.90;99.90
666;DHT22;315;48.738;9.126;2023-04-12T11:19:36;15.50;99.90
666;DHT22;315;48.738;9.126;2023-04-12T11:22:06;15.50;99.90
666;DHT22;315;48.738;9.126;2023-04-12T11:24:32;15.20;99.90
666;DHT22;315;48.738;9.126;2023-04-12T11:26:58;15.10;99.90
666;DHT22;315;48.738;9.126;2023-04-12T11:29:28;15.30;99.90
666;DHT22;315;48.738;9.126;2023-04-12T11:31:54;15.30;99.90
666;DHT22;315;48.738;9.126;2023-04-12T11:34:20;14.80;99.90
666;DHT22;315;48.738;9.126;2023-04-12T11:36:48;15.00;99.90
666;DHT22;315;48.738;9.126;2023-04-12T11:39:14;14.80;99.90
666;DHT22;315;48.738;9.126;2023-04-12T11:41:44;15.00;99.90
666;DHT22;315;48.738;9.126;2023-04-12T11:44:09;15.80;99.90
666;DHT22;315;48.738;9.126;2023-04-12T11:46:35;16.00;99.90
666;DHT22;315;48.738;9.126;2023-04-12T11:49:01;16.40;99.90
666;DHT22;315;48.738;9.126;2023-04-12T11:51:26;16.80;99.90
666;DHT22;315;48.738;9.126;2023-04-12T11:53:54;17.20;99.90
666;DHT22;315;48.738;9.126;2023-04-12T11:56:21;17.60;99.90
666;DHT22;315;48.738;9.126;2023-04-12T11:58:47;17.30;99.90
666;DHT22;315;48.738;9.126;2023-04-12T12:01:17;17.00;99.90
666;DHT22;315;48.738;9.126;2023-04-12T12:03:43;16.40;99.90
666;DHT22;315;48.738;9.126;2023-04-12T12:06:09;15.80;99.90
666;DHT22;315;48.738;9.126;2023-04-12T12:08:35;15.60;99.90
666;DHT22;315;48.738;9.126;2023-04-12T12:11:01;15.30;99.90
666;DHT22;315;48.738;9.126;2023-04-12T12:13:27;15.10;99.90
666;DHT22;315;48.738;9.126;2023-04-12T12:16:07;15.10;99.90
666;DHT22;315;48.738;9.126;2023-04-12T12:18:39;15.30;99.90
666;DHT22;315;48.738;9.126;2023-04-12T12:21:07;15.70;99.90
666;DHT22;315;48.738;9.126;2023-04-12T12:23:34;16.10;99.90
666;DHT22;315;48.738;9.126;2023-04-12T12:26:00;17.20;99.90
666;DHT22;315;48.738;9.126;2023-04-12T12:28:28;17.00;99.90
666;DHT22;315;48.738;9.126;2023-04-12T12:30:55;16.50;99.90
666;DHT22;315;48.738;9.126;2023-04-12T12:33:24;16.00;99.90
666;DHT22;315;48.738;9.126;2023-04-12T12:36:00;15.70;99.90
666;DHT22;315;48.738;9.126;2023-04-12T12:38:33;15.80;99.90
666;DHT22;315;48.738;9.126;2023-04-12T12:41:19;16.70;99.90
666;DHT22;315;48.738;9.126;2023-04-12T12:43:46;18.10;99.90
666;DHT22;315;48.738;9.126;2023-04-12T12:46:12;20.10;99.90
666;DHT22;315;48.738;9.126;2023-04-12T12:48:42;19.90;99.90
666;DHT22;315;48.738;9.126;2023-04-12T12:51:08;19.10;99.90
666;DHT22;315;48.738;9.126;2023-04-12T12:53:38;18.60;99.90
666;DHT22;315;48.738;9.126;2023-04-12T12:56:04;17.90;99.90
666;DHT22;315;48.738;9.126;2023-04-12T12:58:30;16.70;99.90
666;DHT22;315;48.738;9.126;2023-04-12T13:00:56;16.20;99.90
666;DHT22;315;48.738;9.126;2023-04-12T13:03:22;16.10;99.90
666;DHT22;315;48.738;9.126;2023-04-12T13:05:47;16.10;99.90
666;DHT22;315;48.738;9.126;2023-04-12T13:08:14;16.10;99.90
666;DHT22;315;48.738;9.126;2023-04-12T13:10:40;16.20;99.90
666;DHT22;315;48.738;9.126;2023-04-12T13:13:05;16.20;99.90
666;DHT22;315;48.738;9.126;2023-04-12T13:15:31;16.20;99.90
666;DHT22;315;48.738;9.126;2023-04-12T13:17:56;16.00;99.90
666;DHT22;315;48.738;9.126;2023-04-12T13:20:22;15.70;99.90
666;DHT22;315;48.738;9.126;2023-04-12T13:22:48;15.40;99.90
666;DHT22;315;48.738;9.126;2023-04-12T13:25:14;15.30;99.90
666;DHT22;315;48.738;9.126;2023-04-12T13:27:39;15.20;99.90
666;DHT22;315;48.738;9.126;2023-04-12T13:30:05;15.20;99.90
666;DHT22;315;48.738;9.126;2023-04-12T13:32:31;15.20;99.90
666;DHT22;315;48.738;9.126;2023-04-12T13:34:56;15.40;99.90
666;DHT22;315;48.738;9.126;2023-04-12T13:37:22;15.70;99.90
666;DHT22;315;48.738;9.126;2023-04-12T13:39:49;16.00;99.90
666;DHT22;315;48.738;9.126;2023-04-12T13:42:15;16.10;99.90
666;DHT22;315;48.738;9.126;2023-04-12T13:44:41;16.30;99.90
666;DHT22;315;48.738;9.126;2023-04-12T13:47:07;16.60;99.90
666;DHT22;315;48.738;9.126;2023-04-12T13:49:33;16.50;99.90
666;DHT22;315;48.738;9.126;2023-04-12T13:51:58;16.20;99.90
666;DHT22;315;48.738;9.126;2023-04-12T13:54:24;15.90;99.90
666;DHT22;315;48.738;9.126;2023-04-12T13:56:50;15.70;99.90
666;DHT22;315;48.738;9.126;2023-04-12T13:59:15;15.50;99.90
666;DHT22;315;48.738;9.126;2023-04-12T14:01:41;15.20;99.90
666;DHT22;315;48.738;9.126;2023-04-12T14:04:07;15.20;99.90
666;DHT22;315;48.738;9.126;2023-04-12T14:06:32;15.10;99.90
666;DHT22;315;48.738;9.126;2023-04-12T14:08:58;15.10;99.90
666;DHT22;315;48.738;9.126;2023-04-12T14:11:23;15.00;99.90
666;DHT22;315;48.738;9.126;2023-04-12T14:13:50;15.10;99.90
666;DHT22;315;48.738;9.126;2023-04-12T14:16:15;15.20;99.90
666;DHT22;315;48.738;9.126;2023-04-12T14:18:41;15.50;99.90
666;DHT22;315;48.738;9.126;2023-04-12T14:21:08;15.80;99.90
666;DHT22;315;48.738;9.126;2023-04-12T14:23:33;15.90;99.90
666;DHT22;315;48.738;9.126;2023-04-12T14:25:59;16.00;99.90
666;DHT22;315;48.738;9.126;2023-04-12T14:28:24;16.10;99.90
666;DHT22;315;48.738;9.126;2023-04-12T14:30:55;16.20;99.90
666;DHT22;315;48.738;9.126;2023-04-12T14:33:21;16.10;99.90
666;DHT22;315;48.738;9.126;2023-04-12T14:35:47;16.00;99.90
666;DHT22;315;48.738;9.126;2023-04-12T14:38:13;16.00;99.90
666;DHT22;315;48.738;9.126;2023-04-12T14:40:38;16.10;99.90
666;DHT22;315;48.738;9.126;2023-04-12T14:43:04;16.20;99.90
666;DHT22;315;48.738;9.126;2023-04-12T14:45:29;16.00;99.90
666;DHT22;315;48.738;9.126;2023-04-12T14:47:55;16.00;99.90
666;DHT22;315;48.738;9.126;2023-04-12T14:50:21;15.80;99.90
666;DHT22;315;48.738;9.126;2023-04-12T14:52:47;15.90;99.90
666;DHT22;315;48.738;9.126;2023-04-12T14:55:13;15.90;99.90
666;DHT22;315;48.738;9.126;2023-04-12T14:57:39;15.70;99.90
666;DHT22;315;48.738;9.126;2023-04-12T15:00:06;15.60;99.90
666;DHT22;315;48.738;9.126;2023-04-12T15:02:41;15.40;99.90
666;DHT22;315;48.738;9.126;2023-04-12T15:05:08;15.30;99.90
666;DHT22;315;48.738;9.126;2023-04-12T15:07:34;15.10;99.90
666;DHT22;315;48.738;9.126;2023-04-12T15:10:00;15.00;99.90
666;DHT22;315;48.738;9.126;2023-04-12T15:12:26;14.90;99.90
666;DHT22;315;48.738;9.126;2023-04-12T15:14:52;14.90;99.90
666;DHT22;315;48.738;9.126;2023-04-12T15:17:19;14.80;99.90
666;DHT22;315;48.738;9.126;2023-04-12T15:19:44;14.80;99.90
666;DHT22;315;48.738;9.126;2023-04-12T15:22:10;14.30;99.90
666;DHT22;315;48.738;9.126;2023-04-12T15:24:36;12.90;99.90
666;DHT22;315;48.738;9.126;2023-04-12T15:27:02;12.00;99.90
666;DHT22;315;48.738;9.126;2023-04-12T15:29:27;11.50;99.90
666;DHT22;315;48.738;9.126;2023-04-12T15:31:53;11.00;99.90
666;DHT22;315;48.738;9.126;2023-04-12T15:34:20;10.80;99.90
666;DHT22;315;48.738;9.126;2023-04-12T15:36:48;10.70;99.90
666;DHT22;315;48.738;9.126;2023-04-12T15:39:13;10.70;99.90
666;DHT22;315;48.738;9.126;2023-04-12T15:41:39;10.70;99.90
666;DHT22;315;48.738;9.126;2023-04-12T15:44:07;10.70;99.90
666;DHT22;315;48.738;9.126;2023-04-12T15:46:33;10.60;99.90
666;DHT22;315;48.738;9.126;2023-04-12T15:48:59;10.50;99.90
666;DHT22;315;48.738;9.126;2023-04-12T15:51:28;10.60;99.90
666;DHT22;315;48.738;9.126;2023-04-12T15:53:54;10.60;99.90
666;DHT22;315;48.738;9.126;2023-04-12T15:56:20;10.80;99.90
666;DHT22;315;48.738;9.126;2023-04-12T15:58:50;10.90;99.90
666;DHT22;315;48.738;9.126;2023-04-12T16:01:17;11.00;99.90
666;DHT22;315;48.738;9.126;2023-04-12T16:03:43;11.00;99.90
666;DHT22;315;48.738;9.126;2023-04-12T16:06:13;10.90;99.90
666;DHT22;315;48.738;9.126;2023-04-12T16:08:47;10.90;99.90
666;DHT22;315;48.738;9.126;2023-04-12T16:11:14;10.90;99.90
666;DHT22;315;48.738;9.126;2023-04-12T16:13:40;10.90;99.90
666;DHT22;315;48.738;9.126;2023-04-12T16:16:10;10.90;99.90
666;DHT22;315;48.738;9.126;2023-04-12T16:18:37;10.80;99.90
666;DHT22;315;48.738;9.126;2023-04-12T16:21:04;10.90;99.90
666;DHT22;315;48.738;9.126;2023-04-12T16:23:30;10.90;99.90
666;DHT22;315;48.738;9.126;2023-04-12T16:25:57;11.00;99.90
666;DHT22;315;48.738;9.126;2023-04-12T16:28:24;11.10;99.90
666;DHT22;315;48.738;9.126;2023-04-12T16:30:50;11.20;99.90
666;DHT22;315;48.738;9.126;2023-04-12T16:33:16;11.30;99.90
666;DHT22;315;48.738;9.126;2023-04-12T16:35:42;11.40;99.90
666;DHT22;315;48.738;9.126;2023-04-12T16:38:09;11.60;99.90
666;DHT22;315;48.738;9.126;2023-04-12T16:40:35;11.70;99.90
666;DHT22;315;48.738;9.126;2023-04-12T16:43:02;11.70;99.90
666;DHT22;315;48.738;9.126;2023-04-12T16:45:28;11.70;99.90
666;DHT22;315;48.738;9.126;2023-04-12T16:47:53;11.60;99.90
666;DHT22;315;48.738;9.126;2023-04-12T16:50:19;11.50;99.90
666;DHT22;315;48.738;9.126;2023-04-12T16:52:45;11.60;99.90
666;DHT22;315;48.738;9.126;2023-04-12T16:55:10;11.50;99.90
666;DHT22;315;48.738;9.126;2023-04-12T16:57:40;11.50;99.90
666;DHT22;315;48.738;9.126;2023-04-12T17:00:07;11.30;99.90
666;DHT22;315;48.738;9.126;2023-04-12T17:02:48;11.30;99.90
666;DHT22;315;48.738;9.126;2023-04-12T17:05:14;11.20;99.90
666;DHT22;315;48.738;9.126;2023-04-12T17:07:48;11.20;99.90
666;DHT22;315;48.738;9.126;2023-04-12T17:10:18;11.10;99.90
666;DHT22;315;48.738;9.126;2023-04-12T17:12:50;11.10;99.90
666;DHT22;315;48.738;9.126;2023-04-12T17:15:17;11.10;99.90